sensor_id;sensor_type;location;lat;lon;timestamp;P1;durP1;ratioP1;P2;durP2;ratioP2
33279;SDS011;20403;43.114;12.434;2023-07-20T00:45:07;23.88;;;7.82;;
33279;SDS011;20403;43.114;12.434;2023-07-20T00:47:33;15.13;;;6.63;;
33279;SDS011;20403;43.114;12.434;2023-07-20T00:49:58;15.80;;;6.07;;
33279;SDS011;20403;43.114;12.434;2023-07-20T00:52:24;12.70;;;6.82;;
33279;SDS011;20403;43.114;12.434;2023-07-20T00:54:52;12.63;;;6.90;;
33279;SDS011;20403;43.114;12.434;2023-07-20T00:57:21;16.17;;;7.10;;
33279;SDS011;20403;43.114;12.434;2023-07-20T00:59:48;16.48;;;7.93;;
33279;SDS011;20403;43.114;12.434;2023-07-20T01:02:14;19.13;;;7.25;;
33279;SDS011;20403;43.114;12.434;2023-07-20T01:04:39;20.52;;;7.22;;
33279;SDS011;20403;43.114;12.434;2023-07-20T01:12:56;15.60;;;7.80;;
33279;SDS011;20403;43.114;12.434;2023-07-20T01:15:22;15.35;;;6.93;;
33279;SDS011;20403;43.114;12.434;2023-07-20T01:17:48;18.20;;;7.55;;
33279;SDS011;20403;43.114;12.434;2023-07-20T01:20:14;20.38;;;7.53;;
33279;SDS011;20403;43.114;12.434;2023-07-20T01:28:26;15.82;;;7.70;;
33279;SDS011;20403;43.114;12.434;2023-07-20T01:31:24;17.63;;;7.07;;
33279;SDS011;20403;43.114;12.434;2023-07-20T01:33:52;16.80;;;6.88;;
33279;SDS011;20403;43.114;12.434;2023-07-20T01:36:21;19.42;;;7.18;;
33279;SDS011;20403;43.114;12.434;2023-07-20T01:38:49;18.40;;;7.65;;
33279;SDS011;20403;43.114;12.434;2023-07-20T01:41:16;18.95;;;7.70;;
33279;SDS011;20403;43.114;12.434;2023-07-20T01:43:43;16.85;;;6.90;;
33279;SDS011;20403;43.114;12.434;2023-07-20T01:46:09;16.15;;;6.45;;
33279;SDS011;20403;43.114;12.434;2023-07-20T01:48:35;14.57;;;7.13;;
33279;SDS011;20403;43.114;12.434;2023-07-20T01:51:00;16.60;;;7.18;;
33279;SDS011;20403;43.114;12.434;2023-07-20T01:53:25;23.02;;;7.03;;
33279;SDS011;20403;43.114;12.434;2023-07-20T01:55:54;17.58;;;7.63;;
33279;SDS011;20403;43.114;12.434;2023-07-20T01:58:19;14.15;;;6.90;;
33279;SDS011;20403;43.114;12.434;2023-07-20T02:00:45;20.80;;;7.72;;
33279;SDS011;20403;43.114;12.434;2023-07-20T02:03:11;15.38;;;8.00;;
33279;SDS011;20403;43.114;12.434;2023-07-20T02:05:37;17.88;;;7.55;;
33279;SDS011;20403;43.114;12.434;2023-07-20T02:08:03;22.75;;;7.72;;
33279;SDS011;20403;43.114;12.434;2023-07-20T02:10:28;15.75;;;6.97;;
33279;SDS011;20403;43.114;12.434;2023-07-20T02:12:54;13.40;;;7.03;;
33279;SDS011;20403;43.114;12.434;2023-07-20T02:15:19;18.85;;;7.35;;
33279;SDS011;20403;43.114;12.434;2023-07-20T02:17:46;21.00;;;7.32;;
33279;SDS011;20403;43.114;12.434;2023-07-20T02:20:11;17.65;;;7.63;;
33279;SDS011;20403;43.114;12.434;2023-07-20T02:22:37;18.70;;;7.22;;
33279;SDS011;20403;43.114;12.434;2023-07-20T02:25:04;14.32;;;6.90;;
33279;SDS011;20403;43.114;12.434;2023-07-20T02:27:30;16.63;;;7.75;;
33279;SDS011;20403;43.114;12.434;2023-07-20T02:29:55;17.20;;;7.65;;
33279;SDS011;20403;43.114;12.434;2023-07-20T02:32:21;14.43;;;6.88;;
33279;SDS011;20403;43.114;12.434;2023-07-20T02:34:46;23.63;;;8.15;;
33279;SDS011;20403;43.114;12.434;2023-07-20T02:37:12;18.73;;;8.00;;
33279;SDS011;20403;43.114;12.434;2023-07-20T02:39:38;17.67;;;8.40;;
33279;SDS011;20403;43.114;12.434;2023-07-20T02:42:04;20.27;;;8.50;;
33279;SDS011;20403;43.114;12.434;2023-07-20T02:44:30;18.33;;;7.43;;
33279;SDS011;20403;43.114;12.434;2023-07-20T02:46:55;20.35;;;8.00;;
33279;SDS011;20403;43.114;12.434;2023-07-20T02:49:21;17.30;;;7.93;;
33279;SDS011;20403;43.114;12.434;2023-07-20T02:51:46;19.92;;;7.40;;
33279;SDS011;20403;43.114;12.434;2023-07-20T02:54:11;20.35;;;7.70;;
33279;SDS011;20403;43.114;12.434;2023-07-20T02:56:37;15.75;;;7.03;;
33279;SDS011;20403;43.114;12.434;2023-07-20T02:59:02;17.92;;;7.70;;
33279;SDS011;20403;43.114;12.434;2023-07-20T03:01:29;18.25;;;8.18;;
33279;SDS011;20403;43.114;12.434;2023-07-20T03:03:54;13.65;;;7.85;;
33279;SDS011;20403;43.114;12.434;2023-07-20T03:06:20;21.30;;;7.75;;
33279;SDS011;20403;43.114;12.434;2023-07-20T03:08:46;16.55;;;7.57;;
33279;SDS011;20403;43.114;12.434;2023-07-20T03:13:43;22.10;;;8.27;;
33279;SDS011;20403;43.114;12.434;2023-07-20T03:16:09;17.90;;;8.23;;
33279;SDS011;20403;43.114;12.434;2023-07-20T03:18:39;15.55;;;6.97;;
33279;SDS011;20403;43.114;12.434;2023-07-20T03:21:05;26.00;;;8.20;;
33279;SDS011;20403;43.114;12.434;2023-07-20T03:23:31;22.05;;;8.18;;
33279;SDS011;20403;43.114;12.434;2023-07-20T03:25:57;17.50;;;7.45;;
33279;SDS011;20403;43.114;12.434;2023-07-20T03:28:22;16.20;;;7.60;;
33279;SDS011;20403;43.114;12.434;2023-07-20T03:30:56;12.95;;;7.05;;
33279;SDS011;20403;43.114;12.434;2023-07-20T03:33:24;22.73;;;7.72;;
33279;SDS011;20403;43.114;12.434;2023-07-20T03:35:51;20.25;;;8.20;;
33279;SDS011;20403;43.114;12.434;2023-07-20T03:38:16;19.15;;;7.68;;
33279;SDS011;20403;43.114;12.434;2023-07-20T03:40:57;22.25;;;7.75;;
33279;SDS011;20403;43.114;12.434;2023-07-20T03:43:25;18.20;;;7.80;;
33279;SDS011;20403;43.114;12.434;2023-07-20T03:45:51;16.60;;;7.82;;
33279;SDS011;20403;43.114;12.434;2023-07-20T03:48:18;15.32;;;7.82;;
33279;SDS011;20403;43.114;12.434;2023-07-20T03:50:45;20.88;;;7.72;;
33279;SDS011;20403;43.114;12.434;2023-07-20T03:53:11;15.25;;;8.07;;
33279;SDS011;20403;43.114;12.434;2023-07-20T03:55:37;23.88;;;8.02;;
33279;SDS011;20403;43.114;12.434;2023-07-20T03:58:03;22.48;;;7.95;;
33279;SDS011;20403;43.114;12.434;2023-07-20T04:00:28;15.35;;;7.78;;
33279;SDS011;20403;43.114;12.434;2023-07-20T04:02:54;16.40;;;7.43;;
33279;SDS011;20403;43.114;12.434;2023-07-20T04:05:19;29.85;;;7.97;;
33279;SDS011;20403;43.114;12.434;2023-07-20T04:07:45;23.25;;;8.27;;
33279;SDS011;20403;43.114;12.434;2023-07-20T04:10:10;19.00;;;7.40;;
33279;SDS011;20403;43.114;12.434;2023-07-20T04:12:36;41.08;;;8.82;;
33279;SDS011;20403;43.114;12.434;2023-07-20T04:15:01;21.80;;;8.77;;
33279;SDS011;20403;43.114;12.434;2023-07-20T04:17:29;22.65;;;8.95;;
33279;SDS011;20403;43.114;12.434;2023-07-20T04:19:54;26.73;;;9.15;;
33279;SDS011;20403;43.114;12.434;2023-07-20T04:22:19;28.15;;;8.73;;
33279;SDS011;20403;43.114;12.434;2023-07-20T04:24:45;28.05;;;8.85;;
33279;SDS011;20403;43.114;12.434;2023-07-20T04:27:10;24.50;;;9.00;;
33279;SDS011;20403;43.114;12.434;2023-07-20T04:29:35;33.30;;;8.38;;
33279;SDS011;20403;43.114;12.434;2023-07-20T04:32:01;27.48;;;8.40;;
33279;SDS011;20403;43.114;12.434;2023-07-20T04:34:26;22.48;;;8.20;;
33279;SDS011;20403;43.114;12.434;2023-07-20T04:36:52;22.50;;;9.15;;
33279;SDS011;20403;43.114;12.434;2023-07-20T04:39:18;28.35;;;9.18;;
33279;SDS011;20403;43.114;12.434;2023-07-20T04:41:43;22.23;;;9.25;;
33279;SDS011;20403;43.114;12.434;2023-07-20T04:44:09;23.73;;;7.82;;
33279;SDS011;20403;43.114;12.434;2023-07-20T04:46:34;32.25;;;9.05;;
33279;SDS011;20403;43.114;12.434;2023-07-20T04:48:59;21.08;;;9.52;;
33279;SDS011;20403;43.114;12.434;2023-07-20T04:51:26;21.15;;;8.80;;
33279;SDS011;20403;43.114;12.434;2023-07-20T04:53:52;19.83;;;8.35;;
33279;SDS011;20403;43.114;12.434;2023-07-20T04:56:17;20.27;;;9.70;;
33279;SDS011;20403;43.114;12.434;2023-07-20T04:58:42;15.05;;;8.35;;
33279;SDS011;20403;43.114;12.434;2023-07-20T05:01:09;27.00;;;9.18;;
33279;SDS011;20403;43.114;12.434;2023-07-20T05:03:34;23.25;;;9.75;;
33279;SDS011;20403;43.114;12.434;2023-07-20T05:06:00;24.45;;;10.60;;
33279;SDS011;20403;43.114;12.434;2023-07-20T05:08:25;20.80;;;11.63;;
33279;SDS011;20403;43.114;12.434;2023-07-20T05:10:51;24.10;;;8.85;;
33279;SDS011;20403;43.114;12.434;2023-07-20T05:13:17;20.80;;;9.50;;
33279;SDS011;20403;43.114;12.434;2023-07-20T05:15:42;13.95;;;7.30;;
33279;SDS011;20403;43.114;12.434;2023-07-20T05:18:08;16.58;;;8.48;;
33279;SDS011;20403;43.114;12.434;2023-07-20T05:20:36;32.78;;;11.50;;
33279;SDS011;20403;43.114;12.434;2023-07-20T05:23:02;22.00;;;9.98;;
33279;SDS011;20403;43.114;12.434;2023-07-20T05:25:28;24.85;;;9.52;;
33279;SDS011;20403;43.114;12.434;2023-07-20T05:27:53;26.73;;;11.48;;
33279;SDS011;20403;43.114;12.434;2023-07-20T05:30:20;27.63;;;10.45;;
33279;SDS011;20403;43.114;12.434;2023-07-20T05:32:46;27.45;;;10.35;;
33279;SDS011;20403;43.114;12.434;2023-07-20T05:35:16;24.15;;;9.95;;
33279;SDS011;20403;43.114;12.434;2023-07-20T05:37:42;22.85;;;10.05;;
33279;SDS011;20403;43.114;12.434;2023-07-20T05:40:08;23.60;;;11.07;;
33279;SDS011;20403;43.114;12.434;2023-07-20T05:42:36;24.75;;;11.68;;
33279;SDS011;20403;43.114;12.434;2023-07-20T05:45:02;27.83;;;11.25;;
33279;SDS011;20403;43.114;12.434;2023-07-20T05:47:27;26.60;;;10.60;;
33279;SDS011;20403;43.114;12.434;2023-07-20T05:49:54;25.00;;;10.80;;
33279;SDS011;20403;43.114;12.434;2023-07-20T05:52:19;32.08;;;10.15;;
33279;SDS011;20403;43.114;12.434;2023-07-20T05:54:45;24.25;;;9.20;;
33279;SDS011;20403;43.114;12.434;2023-07-20T05:57:10;28.17;;;9.23;;
33279;SDS011;20403;43.114;12.434;2023-07-20T05:59:36;18.05;;;9.30;;
33279;SDS011;20403;43.114;12.434;2023-07-20T06:02:03;31.33;;;9.60;;
33279;SDS011;20403;43.114;12.434;2023-07-20T06:04:29;28.60;;;10.40;;
33279;SDS011;20403;43.114;12.434;2023-07-20T06:06:54;28.83;;;10.68;;
33279;SDS011;20403;43.114;12.434;2023-07-20T06:09:20;24.58;;;8.57;;
33279;SDS011;20403;43.114;12.434;2023-07-20T06:11:45;31.13;;;9.73;;
33279;SDS011;20403;43.114;12.434;2023-07-20T06:14:10;30.92;;;9.18;;
33279;SDS011;20403;43.114;12.434;2023-07-20T06:16:36;33.05;;;9.05;;
33279;SDS011;20403;43.114;12.434;2023-07-20T06:19:01;34.80;;;9.65;;
33279;SDS011;20403;43.114;12.434;2023-07-20T06:21:27;28.13;;;9.38;;
33279;SDS011;20403;43.114;12.434;2023-07-20T06:23:52;21.52;;;8.65;;
33279;SDS011;20403;43.114;12.434;2023-07-20T06:26:18;26.73;;;9.40;;
33279;SDS011;20403;43.114;12.434;2023-07-20T06:28:44;37.63;;;8.40;;
33279;SDS011;20403;43.114;12.434;2023-07-20T06:31:10;25.30;;;9.75;;
33279;SDS011;20403;43.114;12.434;2023-07-20T06:33:36;25.75;;;9.40;;
33279;SDS011;20403;43.114;12.434;2023-07-20T06:36:02;31.17;;;8.85;;
33279;SDS011;20403;43.114;12.434;2023-07-20T06:38:27;33.85;;;9.73;;
33279;SDS011;20403;43.114;12.434;2023-07-20T06:40:54;35.63;;;10.15;;
33279;SDS011;20403;43.114;12.434;2023-07-20T06:43:20;32.60;;;9.68;;
33279;SDS011;20403;43.114;12.434;2023-07-20T06:45:50;27.88;;;7.95;;
33279;SDS011;20403;43.114;12.434;2023-07-20T06:48:16;32.42;;;9.27;;
33279;SDS011;20403;43.114;12.434;2023-07-20T06:50:42;20.95;;;8.20;;
33279;SDS011;20403;43.114;12.434;2023-07-20T06:53:08;24.10;;;7.53;;
33279;SDS011;20403;43.114;12.434;2023-07-20T06:55:33;31.02;;;9.18;;
33279;SDS011;20403;43.114;12.434;2023-07-20T06:57:58;28.88;;;8.85;;
33279;SDS011;20403;43.114;12.434;2023-07-20T07:00:24;25.58;;;8.05;;
33279;SDS011;20403;43.114;12.434;2023-07-20T07:02:49;37.55;;;9.50;;
33279;SDS011;20403;43.114;12.434;2023-07-20T07:05:15;40.47;;;9.23;;
33279;SDS011;20403;43.114;12.434;2023-07-20T07:07:40;29.70;;;8.02;;
33279;SDS011;20403;43.114;12.434;2023-07-20T07:10:06;36.67;;;8.88;;
33279;SDS011;20403;43.114;12.434;2023-07-20T07:12:33;27.40;;;8.02;;
33279;SDS011;20403;43.114;12.434;2023-07-20T07:14:59;31.38;;;7.63;;
33279;SDS011;20403;43.114;12.434;2023-07-20T07:17:25;20.55;;;6.35;;
33279;SDS011;20403;43.114;12.434;2023-07-20T07:19:51;30.80;;;6.13;;
33279;SDS011;20403;43.114;12.434;2023-07-20T07:22:19;33.20;;;7.75;;
33279;SDS011;20403;43.114;12.434;2023-07-20T07:24:46;35.58;;;7.53;;
33279;SDS011;20403;43.114;12.434;2023-07-20T07:27:11;21.52;;;7.35;;
33279;SDS011;20403;43.114;12.434;2023-07-20T07:29:37;27.90;;;6.70;;
33279;SDS011;20403;43.114;12.434;2023-07-20T07:32:02;26.77;;;7.20;;
33279;SDS011;20403;43.114;12.434;2023-07-20T07:34:28;23.60;;;6.70;;
33279;SDS011;20403;43.114;12.434;2023-07-20T07:36:53;24.42;;;7.30;;
33279;SDS011;20403;43.114;12.434;2023-07-20T07:39:19;27.67;;;6.75;;
33279;SDS011;20403;43.114;12.434;2023-07-20T07:41:45;26.05;;;7.05;;
33279;SDS011;20403;43.114;12.434;2023-07-20T07:44:10;30.20;;;5.93;;
33279;SDS011;20403;43.114;12.434;2023-07-20T07:46:36;24.52;;;5.90;;
33279;SDS011;20403;43.114;12.434;2023-07-20T07:49:01;26.48;;;6.50;;
33279;SDS011;20403;43.114;12.434;2023-07-20T07:51:26;28.05;;;6.47;;
33279;SDS011;20403;43.114;12.434;2023-07-20T07:53:52;21.52;;;6.25;;
33279;SDS011;20403;43.114;12.434;2023-07-20T07:56:18;26.73;;;6.93;;
33279;SDS011;20403;43.114;12.434;2023-07-20T07:58:47;20.40;;;5.95;;
33279;SDS011;20403;43.114;12.434;2023-07-20T08:01:16;25.27;;;6.72;;
33279;SDS011;20403;43.114;12.434;2023-07-20T08:03:44;27.80;;;6.75;;
33279;SDS011;20403;43.114;12.434;2023-07-20T08:06:12;26.67;;;6.45;;
33279;SDS011;20403;43.114;12.434;2023-07-20T08:08:38;29.50;;;6.32;;
33279;SDS011;20403;43.114;12.434;2023-07-20T08:11:03;29.42;;;6.25;;
33279;SDS011;20403;43.114;12.434;2023-07-20T08:13:29;21.50;;;6.75;;
33279;SDS011;20403;43.114;12.434;2023-07-20T08:15:55;31.42;;;6.32;;
33279;SDS011;20403;43.114;12.434;2023-07-20T08:18:20;31.40;;;6.57;;
33279;SDS011;20403;43.114;12.434;2023-07-20T08:20:46;30.45;;;6.10;;
33279;SDS011;20403;43.114;12.434;2023-07-20T08:23:12;25.95;;;6.22;;
33279;SDS011;20403;43.114;12.434;2023-07-20T08:25:38;27.88;;;6.32;;
33279;SDS011;20403;43.114;12.434;2023-07-20T08:28:08;25.65;;;5.45;;
33279;SDS011;20403;43.114;12.434;2023-07-20T08:30:42;34.83;;;6.05;;
33279;SDS011;20403;43.114;12.434;2023-07-20T08:33:15;22.33;;;6.25;;
33279;SDS011;20403;43.114;12.434;2023-07-20T08:35:44;14.13;;;5.43;;
33279;SDS011;20403;43.114;12.434;2023-07-20T08:38:09;26.65;;;7.03;;
33279;SDS011;20403;43.114;12.434;2023-07-20T08:40:44;35.97;;;5.95;;
33279;SDS011;20403;43.114;12.434;2023-07-20T08:43:11;27.35;;;6.05;;
33279;SDS011;20403;43.114;12.434;2023-07-20T08:45:38;18.05;;;5.60;;
33279;SDS011;20403;43.114;12.434;2023-07-20T08:48:05;28.75;;;7.78;;
33279;SDS011;20403;43.114;12.434;2023-07-20T08:50:32;22.70;;;5.85;;
33279;SDS011;20403;43.114;12.434;2023-07-20T08:52:58;30.23;;;6.53;;
33279;SDS011;20403;43.114;12.434;2023-07-20T08:55:24;29.02;;;6.10;;
33279;SDS011;20403;43.114;12.434;2023-07-20T08:57:52;29.63;;;6.28;;
33279;SDS011;20403;43.114;12.434;2023-07-20T09:00:23;25.65;;;6.78;;
33279;SDS011;20403;43.114;12.434;2023-07-20T09:02:50;21.42;;;5.75;;
33279;SDS011;20403;43.114;12.434;2023-07-20T09:05:17;28.27;;;6.28;;
33279;SDS011;20403;43.114;12.434;2023-07-20T09:07:43;28.58;;;6.53;;
33279;SDS011;20403;43.114;12.434;2023-07-20T09:10:08;25.15;;;5.78;;
33279;SDS011;20403;43.114;12.434;2023-07-20T09:12:35;19.35;;;6.40;;
33279;SDS011;20403;43.114;12.434;2023-07-20T09:15:03;23.70;;;5.78;;
33279;SDS011;20403;43.114;12.434;2023-07-20T09:17:29;33.22;;;7.25;;
33279;SDS011;20403;43.114;12.434;2023-07-20T09:19:54;33.85;;;6.75;;
33279;SDS011;20403;43.114;12.434;2023-07-20T09:22:20;23.42;;;5.80;;
33279;SDS011;20403;43.114;12.434;2023-07-20T09:24:45;27.77;;;5.50;;
33279;SDS011;20403;43.114;12.434;2023-07-20T09:27:11;26.13;;;6.38;;
33279;SDS011;20403;43.114;12.434;2023-07-20T09:29:47;22.15;;;6.13;;
33279;SDS011;20403;43.114;12.434;2023-07-20T09:32:15;29.08;;;6.72;;
33279;SDS011;20403;43.114;12.434;2023-07-20T09:34:45;30.20;;;5.95;;
33279;SDS011;20403;43.114;12.434;2023-07-20T09:37:11;31.85;;;5.68;;
33279;SDS011;20403;43.114;12.434;2023-07-20T09:39:43;35.85;;;6.10;;
33279;SDS011;20403;43.114;12.434;2023-07-20T09:42:10;29.25;;;6.75;;
33279;SDS011;20403;43.114;12.434;2023-07-20T09:44:39;29.25;;;6.13;;
33279;SDS011;20403;43.114;12.434;2023-07-20T09:47:08;23.75;;;6.05;;
33279;SDS011;20403;43.114;12.434;2023-07-20T09:49:38;21.48;;;5.63;;
33279;SDS011;20403;43.114;12.434;2023-07-20T09:52:05;27.83;;;6.35;;
33279;SDS011;20403;43.114;12.434;2023-07-20T09:54:31;19.73;;;6.03;;
33279;SDS011;20403;43.114;12.434;2023-07-20T09:56:57;25.02;;;6.15;;
33279;SDS011;20403;43.114;12.434;2023-07-20T09:59:23;19.70;;;5.65;;
33279;SDS011;20403;43.114;12.434;2023-07-20T10:01:49;23.20;;;5.50;;
33279;SDS011;20403;43.114;12.434;2023-07-20T10:04:16;23.83;;;5.75;;
33279;SDS011;20403;43.114;12.434;2023-07-20T10:06:43;18.67;;;5.72;;
33279;SDS011;20403;43.114;12.434;2023-07-20T10:09:12;23.70;;;5.05;;
33279;SDS011;20403;43.114;12.434;2023-07-20T10:11:40;21.33;;;5.85;;
33279;SDS011;20403;43.114;12.434;2023-07-20T10:14:16;28.48;;;6.75;;
33279;SDS011;20403;43.114;12.434;2023-07-20T10:16:51;23.58;;;6.15;;
33279;SDS011;20403;43.114;12.434;2023-07-20T10:19:23;22.38;;;6.05;;
33279;SDS011;20403;43.114;12.434;2023-07-20T10:21:56;25.48;;;5.78;;
33279;SDS011;20403;43.114;12.434;2023-07-20T10:24:26;21.33;;;5.32;;
33279;SDS011;20403;43.114;12.434;2023-07-20T10:26:53;28.58;;;6.60;;
33279;SDS011;20403;43.114;12.434;2023-07-20T10:29:20;19.63;;;5.80;;
33279;SDS011;20403;43.114;12.434;2023-07-20T10:31:46;22.83;;;6.00;;
33279;SDS011;20403;43.114;12.434;2023-07-20T10:34:12;22.65;;;5.22;;
33279;SDS011;20403;43.114;12.434;2023-07-20T10:36:43;26.50;;;6.38;;
33279;SDS011;20403;43.114;12.434;2023-07-20T10:39:23;26.35;;;5.95;;
33279;SDS011;20403;43.114;12.434;2023-07-20T10:41:50;25.73;;;6.20;;
33279;SDS011;20403;43.114;12.434;2023-07-20T10:44:18;25.48;;;5.97;;
33279;SDS011;20403;43.114;12.434;2023-07-20T10:46:45;19.42;;;6.13;;
33279;SDS011;20403;43.114;12.434;2023-07-20T10:49:11;17.42;;;5.32;;
33279;SDS011;20403;43.114;12.434;2023-07-20T10:54:09;20.88;;;6.35;;
33279;SDS011;20403;43.114;12.434;2023-07-20T10:56:41;26.50;;;6.15;;
33279;SDS011;20403;43.114;12.434;2023-07-20T10:59:17;16.98;;;5.65;;
33279;SDS011;20403;43.114;12.434;2023-07-20T11:01:44;26.08;;;5.68;;
33279;SDS011;20403;43.114;12.434;2023-07-20T11:04:10;23.40;;;5.53;;
33279;SDS011;20403;43.114;12.434;2023-07-20T11:06:36;17.65;;;5.20;;
33279;SDS011;20403;43.114;12.434;2023-07-20T11:11:40;18.65;;;4.93;;
33279;SDS011;20403;43.114;12.434;2023-07-20T11:16:33;33.45;;;5.88;;
33279;SDS011;20403;43.114;12.434;2023-07-20T11:19:00;17.90;;;5.75;;
33279;SDS011;20403;43.114;12.434;2023-07-20T11:21:26;15.88;;;5.05;;
33279;SDS011;20403;43.114;12.434;2023-07-20T11:23:53;19.02;;;5.80;;
33279;SDS011;20403;43.114;12.434;2023-07-20T11:26:18;19.42;;;5.43;;
33279;SDS011;20403;43.114;12.434;2023-07-20T11:28:53;23.65;;;5.28;;
33279;SDS011;20403;43.114;12.434;2023-07-20T11:31:18;21.08;;;6.05;;
33279;SDS011;20403;43.114;12.434;2023-07-20T11:33:44;18.80;;;4.63;;
33279;SDS011;20403;43.114;12.434;2023-07-20T11:36:10;18.80;;;5.15;;
33279;SDS011;20403;43.114;12.434;2023-07-20T11:38:36;21.60;;;5.78;;
33279;SDS011;20403;43.114;12.434;2023-07-20T11:41:04;20.33;;;5.20;;
33279;SDS011;20403;43.114;12.434;2023-07-20T11:43:30;19.85;;;6.00;;
33279;SDS011;20403;43.114;12.434;2023-07-20T11:45:56;19.55;;;5.50;;
33279;SDS011;20403;43.114;12.434;2023-07-20T11:48:21;21.35;;;5.15;;
33279;SDS011;20403;43.114;12.434;2023-07-20T11:50:47;22.33;;;5.18;;
33279;SDS011;20403;43.114;12.434;2023-07-20T11:53:13;20.67;;;5.75;;
33279;SDS011;20403;43.114;12.434;2023-07-20T11:55:39;18.08;;;4.80;;
33279;SDS011;20403;43.114;12.434;2023-07-20T11:58:06;15.52;;;5.22;;
33279;SDS011;20403;43.114;12.434;2023-07-20T12:00:33;24.63;;;5.72;;
33279;SDS011;20403;43.114;12.434;2023-07-20T12:02:59;29.60;;;6.00;;
33279;SDS011;20403;43.114;12.434;2023-07-20T12:05:25;22.08;;;6.07;;
33279;SDS011;20403;43.114;12.434;2023-07-20T12:07:54;16.55;;;5.22;;
33279;SDS011;20403;43.114;12.434;2023-07-20T12:10:23;18.25;;;5.18;;
33279;SDS011;20403;43.114;12.434;2023-07-20T12:12:51;17.00;;;4.95;;
33279;SDS011;20403;43.114;12.434;2023-07-20T12:15:19;26.80;;;5.80;;
33279;SDS011;20403;43.114;12.434;2023-07-20T12:17:49;18.65;;;5.80;;
33279;SDS011;20403;43.114;12.434;2023-07-20T12:22:56;25.88;;;6.35;;
33279;SDS011;20403;43.114;12.434;2023-07-20T12:25:31;18.17;;;5.10;;
33279;SDS011;20403;43.114;12.434;2023-07-20T12:28:00;19.42;;;5.32;;
33279;SDS011;20403;43.114;12.434;2023-07-20T12:30:27;12.73;;;4.47;;
33279;SDS011;20403;43.114;12.434;2023-07-20T12:32:53;16.02;;;5.30;;
33279;SDS011;20403;43.114;12.434;2023-07-20T12:35:18;20.58;;;5.50;;
33279;SDS011;20403;43.114;12.434;2023-07-20T12:37:44;19.10;;;5.68;;
33279;SDS011;20403;43.114;12.434;2023-07-20T12:40:13;25.85;;;5.75;;
33279;SDS011;20403;43.114;12.434;2023-07-20T12:42:39;22.75;;;5.95;;
33279;SDS011;20403;43.114;12.434;2023-07-20T12:45:04;22.20;;;5.35;;
33279;SDS011;20403;43.114;12.434;2023-07-20T12:47:30;19.95;;;5.38;;
33279;SDS011;20403;43.114;12.434;2023-07-20T12:49:55;19.02;;;5.90;;
33279;SDS011;20403;43.114;12.434;2023-07-20T12:52:21;18.73;;;5.63;;
33279;SDS011;20403;43.114;12.434;2023-07-20T12:54:46;19.00;;;5.63;;
33279;SDS011;20403;43.114;12.434;2023-07-20T12:57:12;22.25;;;5.75;;
33279;SDS011;20403;43.114;12.434;2023-07-20T12:59:37;22.55;;;6.60;;
33279;SDS011;20403;43.114;12.434;2023-07-20T13:02:03;18.80;;;5.30;;
33279;SDS011;20403;43.114;12.434;2023-07-20T13:04:28;16.38;;;5.00;;
33279;SDS011;20403;43.114;12.434;2023-07-20T13:06:55;17.35;;;5.25;;
33279;SDS011;20403;43.114;12.434;2023-07-20T13:09:20;14.55;;;4.95;;
33279;SDS011;20403;43.114;12.434;2023-07-20T13:11:46;13.00;;;5.03;;
33279;SDS011;20403;43.114;12.434;2023-07-20T13:14:11;21.45;;;5.30;;
33279;SDS011;20403;43.114;12.434;2023-07-20T13:16:36;19.63;;;5.30;;
33279;SDS011;20403;43.114;12.434;2023-07-20T13:19:02;21.45;;;5.68;;
33279;SDS011;20403;43.114;12.434;2023-07-20T13:21:27;16.85;;;5.18;;
33279;SDS011;20403;43.114;12.434;2023-07-20T13:23:53;17.83;;;4.93;;
33279;SDS011;20403;43.114;12.434;2023-07-20T13:26:18;13.57;;;5.50;;
33279;SDS011;20403;43.114;12.434;2023-07-20T13:28:44;24.50;;;5.85;;
33279;SDS011;20403;43.114;12.434;2023-07-20T13:31:09;18.83;;;5.43;;
33279;SDS011;20403;43.114;12.434;2023-07-20T13:33:36;16.23;;;5.65;;
33279;SDS011;20403;43.114;12.434;2023-07-20T13:36:01;31.75;;;5.75;;
33279;SDS011;20403;43.114;12.434;2023-07-20T13:38:27;17.05;;;5.25;;
33279;SDS011;20403;43.114;12.434;2023-07-20T13:40:52;19.63;;;5.43;;
33279;SDS011;20403;43.114;12.434;2023-07-20T13:43:18;21.00;;;5.47;;
33279;SDS011;20403;43.114;12.434;2023-07-20T13:45:43;20.33;;;5.30;;
33279;SDS011;20403;43.114;12.434;2023-07-20T13:48:08;17.90;;;4.85;;
33279;SDS011;20403;43.114;12.434;2023-07-20T13:50:34;14.32;;;4.88;;
33279;SDS011;20403;43.114;12.434;2023-07-20T13:52:59;22.35;;;5.47;;
33279;SDS011;20403;43.114;12.434;2023-07-20T13:55:27;21.10;;;6.38;;
33279;SDS011;20403;43.114;12.434;2023-07-20T13:57:53;15.85;;;4.65;;
33279;SDS011;20403;43.114;12.434;2023-07-20T14:00:18;17.23;;;5.57;;
33279;SDS011;20403;43.114;12.434;2023-07-20T14:02:44;13.52;;;4.68;;
33279;SDS011;20403;43.114;12.434;2023-07-20T14:05:09;15.82;;;4.78;;
33279;SDS011;20403;43.114;12.434;2023-07-20T14:07:35;20.13;;;4.95;;
33279;SDS011;20403;43.114;12.434;2023-07-20T14:10:01;13.90;;;5.13;;
33279;SDS011;20403;43.114;12.434;2023-07-20T14:12:26;23.65;;;5.50;;
33279;SDS011;20403;43.114;12.434;2023-07-20T14:14:52;17.83;;;5.22;;
33279;SDS011;20403;43.114;12.434;2023-07-20T14:17:19;14.52;;;5.03;;
33279;SDS011;20403;43.114;12.434;2023-07-20T14:19:44;18.50;;;4.85;;
33279;SDS011;20403;43.114;12.434;2023-07-20T14:22:09;22.95;;;6.43;;
33279;SDS011;20403;43.114;12.434;2023-07-20T14:24:35;18.23;;;4.93;;
33279;SDS011;20403;43.114;12.434;2023-07-20T14:27:00;17.48;;;5.22;;
33279;SDS011;20403;43.114;12.434;2023-07-20T14:29:26;24.02;;;5.38;;
33279;SDS011;20403;43.114;12.434;2023-07-20T14:31:51;20.70;;;4.90;;
33279;SDS011;20403;43.114;12.434;2023-07-20T14:34:17;20.27;;;5.40;;
33279;SDS011;20403;43.114;12.434;2023-07-20T14:36:45;20.67;;;6.00;;
33279;SDS011;20403;43.114;12.434;2023-07-20T14:39:11;18.15;;;5.57;;
33279;SDS011;20403;43.114;12.434;2023-07-20T14:41:36;21.70;;;5.72;;
33279;SDS011;20403;43.114;12.434;2023-07-20T14:44:02;20.17;;;5.50;;
33279;SDS011;20403;43.114;12.434;2023-07-20T14:46:27;24.65;;;6.40;;
33279;SDS011;20403;43.114;12.434;2023-07-20T14:48:53;11.25;;;5.03;;
33279;SDS011;20403;43.114;12.434;2023-07-20T14:51:18;15.43;;;5.07;;
33279;SDS011;20403;43.114;12.434;2023-07-20T14:53:44;22.35;;;5.95;;
33279;SDS011;20403;43.114;12.434;2023-07-20T14:56:09;23.58;;;5.65;;
33279;SDS011;20403;43.114;12.434;2023-07-20T14:58:35;17.58;;;4.85;;
33279;SDS011;20403;43.114;12.434;2023-07-20T15:01:00;22.23;;;5.60;;
33279;SDS011;20403;43.114;12.434;2023-07-20T15:03:26;24.88;;;6.20;;
33279;SDS011;20403;43.114;12.434;2023-07-20T15:05:51;26.10;;;5.43;;
33279;SDS011;20403;43.114;12.434;2023-07-20T15:08:17;20.15;;;5.70;;
33279;SDS011;20403;43.114;12.434;2023-07-20T15:10:44;16.65;;;6.03;;
33279;SDS011;20403;43.114;12.434;2023-07-20T15:13:11;21.95;;;5.80;;
33279;SDS011;20403;43.114;12.434;2023-07-20T15:15:37;15.82;;;5.40;;
33279;SDS011;20403;43.114;12.434;2023-07-20T15:18:02;15.68;;;5.15;;
33279;SDS011;20403;43.114;12.434;2023-07-20T15:20:28;23.33;;;5.38;;
33279;SDS011;20403;43.114;12.434;2023-07-20T15:22:56;19.30;;;5.75;;
33279;SDS011;20403;43.114;12.434;2023-07-20T15:25:22;25.27;;;6.30;;